sensor_id;sensor_type;location;lat;lon;timestamp;P1;durP1;ratioP1;P2;durP2;ratioP2
14078;SDS011;7115;50.150;8.568;2024-03-07T00:02:16;35.93;;;21.93;;
14078;SDS011;7115;50.150;8.568;2024-03-07T00:04:43;40.20;;;22.83;;
14078;SDS011;7115;50.150;8.568;2024-03-07T00:07:10;44.07;;;24.93;;
14078;SDS011;7115;50.150;8.568;2024-03-07T00:09:39;38.63;;;23.40;;
14078;SDS011;7115;50.150;8.568;2024-03-07T00:12:06;41.73;;;23.93;;
14078;SDS011;7115;50.150;8.568;2024-03-07T00:14:34;40.67;;;24.47;;
14078;SDS011;7115;50.150;8.568;2024-03-07T00:17:01;40.73;;;24.13;;
14078;SDS011;7115;50.150;8.568;2024-03-07T00:19:29;41.97;;;23.37;;
14078;SDS011;7115;50.150;8.568;2024-03-07T00:21:56;43.43;;;24.83;;
14078;SDS011;7115;50.150;8.568;2024-03-07T00:24:23;41.37;;;24.30;;
14078;SDS011;7115;50.150;8.568;2024-03-07T00:26:52;51.17;;;23.60;;
14078;SDS011;7115;50.150;8.568;2024-03-07T00:29:19;40.87;;;24.73;;
14078;SDS011;7115;50.150;8.568;2024-03-07T00:31:47;43.20;;;24.77;;
14078;SDS011;7115;50.150;8.568;2024-03-07T00:34:14;43.10;;;24.57;;
14078;SDS011;7115;50.150;8.568;2024-03-07T00:36:51;40.43;;;23.23;;
14078;SDS011;7115;50.150;8.568;2024-03-07T00:39:19;41.57;;;23.13;;
14078;SDS011;7115;50.150;8.568;2024-03-07T00:41:46;42.00;;;23.47;;
14078;SDS011;7115;50.150;8.568;2024-03-07T00:44:15;42.77;;;23.57;;
14078;SDS011;7115;50.150;8.568;2024-03-07T00:46:42;40.77;;;23.87;;
14078;SDS011;7115;50.150;8.568;2024-03-07T00:49:09;43.33;;;23.27;;
14078;SDS011;7115;50.150;8.568;2024-03-07T00:51:36;39.33;;;23.33;;
14078;SDS011;7115;50.150;8.568;2024-03-07T00:54:05;40.73;;;22.40;;
14078;SDS011;7115;50.150;8.568;2024-03-07T00:56:33;39.40;;;22.67;;
14078;SDS011;7115;50.150;8.568;2024-03-07T00:59:00;38.13;;;22.23;;
14078;SDS011;7115;50.150;8.568;2024-03-07T01:01:28;34.80;;;22.10;;
14078;SDS011;7115;50.150;8.568;2024-03-07T01:03:55;36.97;;;22.17;;
14078;SDS011;7115;50.150;8.568;2024-03-07T01:06:22;39.83;;;22.30;;
14078;SDS011;7115;50.150;8.568;2024-03-07T01:08:49;35.97;;;21.30;;
14078;SDS011;7115;50.150;8.568;2024-03-07T01:11:16;34.90;;;21.83;;
14078;SDS011;7115;50.150;8.568;2024-03-07T01:13:44;36.17;;;21.73;;
14078;SDS011;7115;50.150;8.568;2024-03-07T01:16:11;36.50;;;21.60;;
14078;SDS011;7115;50.150;8.568;2024-03-07T01:18:39;32.77;;;20.90;;
14078;SDS011;7115;50.150;8.568;2024-03-07T01:21:06;36.97;;;22.67;;
14078;SDS011;7115;50.150;8.568;2024-03-07T01:23:34;35.90;;;20.83;;
14078;SDS011;7115;50.150;8.568;2024-03-07T01:26:01;33.20;;;20.37;;
14078;SDS011;7115;50.150;8.568;2024-03-07T01:28:29;33.63;;;20.33;;
14078;SDS011;7115;50.150;8.568;2024-03-07T01:30:56;31.83;;;19.93;;
14078;SDS011;7115;50.150;8.568;2024-03-07T01:33:24;35.83;;;20.10;;
14078;SDS011;7115;50.150;8.568;2024-03-07T01:35:53;38.07;;;21.13;;
14078;SDS011;7115;50.150;8.568;2024-03-07T01:38:20;33.17;;;18.87;;
14078;SDS011;7115;50.150;8.568;2024-03-07T01:40:47;29.20;;;19.43;;
14078;SDS011;7115;50.150;8.568;2024-03-07T01:43:15;30.73;;;19.23;;
14078;SDS011;7115;50.150;8.568;2024-03-07T01:45:42;29.80;;;19.23;;
14078;SDS011;7115;50.150;8.568;2024-03-07T01:48:09;29.00;;;18.27;;
14078;SDS011;7115;50.150;8.568;2024-03-07T01:50:37;31.40;;;18.37;;
14078;SDS011;7115;50.150;8.568;2024-03-07T01:53:06;29.30;;;17.90;;
14078;SDS011;7115;50.150;8.568;2024-03-07T01:55:36;30.43;;;19.73;;
14078;SDS011;7115;50.150;8.568;2024-03-07T01:58:04;30.73;;;19.07;;
14078;SDS011;7115;50.150;8.568;2024-03-07T02:00:32;29.50;;;17.20;;
14078;SDS011;7115;50.150;8.568;2024-03-07T02:02:59;30.73;;;18.03;;
14078;SDS011;7115;50.150;8.568;2024-03-07T02:05:26;30.77;;;18.17;;
14078;SDS011;7115;50.150;8.568;2024-03-07T02:07:53;30.87;;;18.30;;
14078;SDS011;7115;50.150;8.568;2024-03-07T02:10:22;29.57;;;17.70;;
14078;SDS011;7115;50.150;8.568;2024-03-07T02:12:49;30.17;;;18.73;;
14078;SDS011;7115;50.150;8.568;2024-03-07T02:15:16;32.33;;;18.07;;
14078;SDS011;7115;50.150;8.568;2024-03-07T02:17:43;27.20;;;17.50;;
14078;SDS011;7115;50.150;8.568;2024-03-07T02:20:11;28.83;;;17.70;;
14078;SDS011;7115;50.150;8.568;2024-03-07T02:22:41;33.23;;;18.73;;
14078;SDS011;7115;50.150;8.568;2024-03-07T02:25:08;28.13;;;17.10;;
14078;SDS011;7115;50.150;8.568;2024-03-07T02:27:39;30.80;;;17.90;;
14078;SDS011;7115;50.150;8.568;2024-03-07T02:30:06;26.73;;;16.47;;
14078;SDS011;7115;50.150;8.568;2024-03-07T02:32:35;24.87;;;15.77;;
14078;SDS011;7115;50.150;8.568;2024-03-07T02:35:03;28.07;;;16.40;;
14078;SDS011;7115;50.150;8.568;2024-03-07T02:37:31;26.53;;;16.87;;
14078;SDS011;7115;50.150;8.568;2024-03-07T02:39:59;27.10;;;17.53;;
14078;SDS011;7115;50.150;8.568;2024-03-07T02:42:27;26.93;;;15.63;;
14078;SDS011;7115;50.150;8.568;2024-03-07T02:44:54;29.27;;;16.03;;
14078;SDS011;7115;50.150;8.568;2024-03-07T02:47:21;25.53;;;16.27;;
14078;SDS011;7115;50.150;8.568;2024-03-07T02:49:50;28.10;;;15.47;;
14078;SDS011;7115;50.150;8.568;2024-03-07T02:52:17;22.23;;;15.00;;
14078;SDS011;7115;50.150;8.568;2024-03-07T02:54:44;27.20;;;15.47;;
14078;SDS011;7115;50.150;8.568;2024-03-07T02:57:12;28.13;;;15.77;;
14078;SDS011;7115;50.150;8.568;2024-03-07T02:59:39;24.53;;;15.20;;
14078;SDS011;7115;50.150;8.568;2024-03-07T03:02:06;28.73;;;15.93;;
14078;SDS011;7115;50.150;8.568;2024-03-07T03:04:33;27.50;;;15.77;;
14078;SDS011;7115;50.150;8.568;2024-03-07T03:07:00;26.63;;;15.30;;
14078;SDS011;7115;50.150;8.568;2024-03-07T03:09:27;25.00;;;15.43;;
14078;SDS011;7115;50.150;8.568;2024-03-07T03:11:54;27.07;;;15.70;;
14078;SDS011;7115;50.150;8.568;2024-03-07T03:14:23;27.60;;;16.07;;
14078;SDS011;7115;50.150;8.568;2024-03-07T03:16:50;26.07;;;16.13;;
14078;SDS011;7115;50.150;8.568;2024-03-07T03:19:17;25.60;;;15.93;;
14078;SDS011;7115;50.150;8.568;2024-03-07T03:21:44;25.63;;;15.93;;
14078;SDS011;7115;50.150;8.568;2024-03-07T03:24:10;27.47;;;16.17;;
14078;SDS011;7115;50.150;8.568;2024-03-07T03:26:37;25.70;;;15.40;;
14078;SDS011;7115;50.150;8.568;2024-03-07T03:29:04;23.40;;;14.97;;
14078;SDS011;7115;50.150;8.568;2024-03-07T03:31:34;24.77;;;15.53;;
14078;SDS011;7115;50.150;8.568;2024-03-07T03:34:01;29.67;;;15.20;;
14078;SDS011;7115;50.150;8.568;2024-03-07T03:36:28;23.23;;;14.63;;
14078;SDS011;7115;50.150;8.568;2024-03-07T03:38:55;21.80;;;13.50;;
14078;SDS011;7115;50.150;8.568;2024-03-07T03:41:23;24.40;;;14.57;;
14078;SDS011;7115;50.150;8.568;2024-03-07T03:43:50;20.20;;;13.73;;
14078;SDS011;7115;50.150;8.568;2024-03-07T03:46:17;22.60;;;13.90;;
14078;SDS011;7115;50.150;8.568;2024-03-07T03:48:45;22.97;;;14.70;;
14078;SDS011;7115;50.150;8.568;2024-03-07T03:51:12;22.87;;;14.43;;
14078;SDS011;7115;50.150;8.568;2024-03-07T03:53:39;22.93;;;13.97;;
14078;SDS011;7115;50.150;8.568;2024-03-07T03:56:09;24.27;;;15.33;;
14078;SDS011;7115;50.150;8.568;2024-03-07T03:58:39;23.97;;;14.27;;
14078;SDS011;7115;50.150;8.568;2024-03-07T04:01:06;22.43;;;14.17;;
14078;SDS011;7115;50.150;8.568;2024-03-07T04:03:39;25.63;;;13.97;;
14078;SDS011;7115;50.150;8.568;2024-03-07T04:06:07;23.07;;;13.83;;
14078;SDS011;7115;50.150;8.568;2024-03-07T04:08:35;26.10;;;15.13;;
14078;SDS011;7115;50.150;8.568;2024-03-07T04:11:03;24.07;;;14.33;;
14078;SDS011;7115;50.150;8.568;2024-03-07T04:13:31;25.57;;;14.73;;
14078;SDS011;7115;50.150;8.568;2024-03-07T04:15:58;23.97;;;14.70;;
14078;SDS011;7115;50.150;8.568;2024-03-07T04:18:25;28.87;;;15.37;;
14078;SDS011;7115;50.150;8.568;2024-03-07T04:20:53;28.10;;;15.80;;
14078;SDS011;7115;50.150;8.568;2024-03-07T04:23:22;27.40;;;14.87;;
14078;SDS011;7115;50.150;8.568;2024-03-07T04:25:49;26.43;;;15.57;;
14078;SDS011;7115;50.150;8.568;2024-03-07T04:28:17;23.33;;;15.07;;
14078;SDS011;7115;50.150;8.568;2024-03-07T04:30:45;24.90;;;15.70;;
14078;SDS011;7115;50.150;8.568;2024-03-07T04:33:15;24.80;;;14.97;;
14078;SDS011;7115;50.150;8.568;2024-03-07T04:35:42;25.47;;;15.23;;
14078;SDS011;7115;50.150;8.568;2024-03-07T04:38:09;27.37;;;15.77;;
14078;SDS011;7115;50.150;8.568;2024-03-07T04:40:39;24.63;;;14.43;;
14078;SDS011;7115;50.150;8.568;2024-03-07T04:43:06;25.30;;;15.03;;
14078;SDS011;7115;50.150;8.568;2024-03-07T04:45:33;26.70;;;15.77;;
14078;SDS011;7115;50.150;8.568;2024-03-07T04:48:00;23.90;;;15.27;;
14078;SDS011;7115;50.150;8.568;2024-03-07T04:50:28;27.60;;;16.20;;
14078;SDS011;7115;50.150;8.568;2024-03-07T04:52:55;25.03;;;15.07;;
14078;SDS011;7115;50.150;8.568;2024-03-07T04:55:22;26.60;;;15.20;;
14078;SDS011;7115;50.150;8.568;2024-03-07T04:57:50;24.10;;;14.67;;
14078;SDS011;7115;50.150;8.568;2024-03-07T05:00:18;25.80;;;15.20;;
14078;SDS011;7115;50.150;8.568;2024-03-07T05:02:48;23.13;;;14.60;;
14078;SDS011;7115;50.150;8.568;2024-03-07T05:05:17;24.70;;;15.63;;
14078;SDS011;7115;50.150;8.568;2024-03-07T05:07:53;23.53;;;14.90;;
14078;SDS011;7115;50.150;8.568;2024-03-07T05:10:21;24.03;;;15.20;;
14078;SDS011;7115;50.150;8.568;2024-03-07T05:12:48;22.07;;;13.97;;
14078;SDS011;7115;50.150;8.568;2024-03-07T05:15:17;23.53;;;14.73;;
14078;SDS011;7115;50.150;8.568;2024-03-07T05:17:44;24.90;;;14.53;;
14078;SDS011;7115;50.150;8.568;2024-03-07T05:20:11;20.73;;;14.33;;
14078;SDS011;7115;50.150;8.568;2024-03-07T05:22:39;25.03;;;14.77;;
14078;SDS011;7115;50.150;8.568;2024-03-07T05:25:10;24.40;;;13.93;;
14078;SDS011;7115;50.150;8.568;2024-03-07T05:27:37;28.60;;;16.30;;
14078;SDS011;7115;50.150;8.568;2024-03-07T05:30:06;28.40;;;16.63;;
14078;SDS011;7115;50.150;8.568;2024-03-07T05:32:38;23.20;;;15.73;;
14078;SDS011;7115;50.150;8.568;2024-03-07T05:35:07;24.50;;;16.07;;
14078;SDS011;7115;50.150;8.568;2024-03-07T05:37:34;24.10;;;15.17;;
14078;SDS011;7115;50.150;8.568;2024-03-07T05:40:01;25.17;;;15.83;;
14078;SDS011;7115;50.150;8.568;2024-03-07T05:42:30;30.00;;;15.57;;
14078;SDS011;7115;50.150;8.568;2024-03-07T05:44:58;23.77;;;14.70;;
14078;SDS011;7115;50.150;8.568;2024-03-07T05:47:27;28.93;;;15.83;;
14078;SDS011;7115;50.150;8.568;2024-03-07T05:49:54;24.30;;;15.27;;
14078;SDS011;7115;50.150;8.568;2024-03-07T05:52:21;24.83;;;15.27;;
14078;SDS011;7115;50.150;8.568;2024-03-07T05:54:48;30.50;;;16.17;;
14078;SDS011;7115;50.150;8.568;2024-03-07T05:57:15;25.00;;;15.70;;
14078;SDS011;7115;50.150;8.568;2024-03-07T05:59:42;25.20;;;15.53;;
14078;SDS011;7115;50.150;8.568;2024-03-07T06:02:09;25.10;;;15.50;;
14078;SDS011;7115;50.150;8.568;2024-03-07T06:04:40;24.77;;;15.27;;
14078;SDS011;7115;50.150;8.568;2024-03-07T06:07:07;27.07;;;15.83;;
14078;SDS011;7115;50.150;8.568;2024-03-07T06:09:35;24.60;;;15.27;;
14078;SDS011;7115;50.150;8.568;2024-03-07T06:12:02;25.20;;;15.27;;
14078;SDS011;7115;50.150;8.568;2024-03-07T06:14:41;25.37;;;14.57;;
14078;SDS011;7115;50.150;8.568;2024-03-07T06:17:09;24.60;;;15.07;;
14078;SDS011;7115;50.150;8.568;2024-03-07T06:19:37;23.20;;;15.53;;
14078;SDS011;7115;50.150;8.568;2024-03-07T06:22:05;22.63;;;14.77;;
14078;SDS011;7115;50.150;8.568;2024-03-07T06:24:35;25.77;;;14.97;;
14078;SDS011;7115;50.150;8.568;2024-03-07T06:27:03;24.43;;;16.10;;
14078;SDS011;7115;50.150;8.568;2024-03-07T06:29:35;22.33;;;14.50;;
14078;SDS011;7115;50.150;8.568;2024-03-07T06:32:02;26.17;;;15.73;;
14078;SDS011;7115;50.150;8.568;2024-03-07T06:34:30;22.07;;;14.17;;
14078;SDS011;7115;50.150;8.568;2024-03-07T06:36:57;23.27;;;14.87;;
14078;SDS011;7115;50.150;8.568;2024-03-07T06:39:25;24.83;;;15.07;;
14078;SDS011;7115;50.150;8.568;2024-03-07T06:41:53;27.90;;;15.73;;
14078;SDS011;7115;50.150;8.568;2024-03-07T06:44:20;26.33;;;15.07;;
14078;SDS011;7115;50.150;8.568;2024-03-07T06:46:50;24.30;;;15.63;;
14078;SDS011;7115;50.150;8.568;2024-03-07T06:49:17;22.73;;;14.80;;
14078;SDS011;7115;50.150;8.568;2024-03-07T06:51:44;25.37;;;15.97;;
14078;SDS011;7115;50.150;8.568;2024-03-07T06:54:11;26.10;;;15.80;;
14078;SDS011;7115;50.150;8.568;2024-03-07T06:56:40;25.00;;;16.67;;
14078;SDS011;7115;50.150;8.568;2024-03-07T06:59:10;25.00;;;15.60;;
14078;SDS011;7115;50.150;8.568;2024-03-07T07:01:37;26.10;;;16.97;;
14078;SDS011;7115;50.150;8.568;2024-03-07T07:04:05;23.43;;;16.27;;
14078;SDS011;7115;50.150;8.568;2024-03-07T07:06:35;23.63;;;15.43;;
14078;SDS011;7115;50.150;8.568;2024-03-07T07:09:02;24.13;;;15.13;;
14078;SDS011;7115;50.150;8.568;2024-03-07T07:11:30;27.03;;;16.30;;
14078;SDS011;7115;50.150;8.568;2024-03-07T07:14:02;24.40;;;15.80;;
14078;SDS011;7115;50.150;8.568;2024-03-07T07:16:29;29.23;;;18.93;;
14078;SDS011;7115;50.150;8.568;2024-03-07T07:18:57;25.77;;;16.20;;
14078;SDS011;7115;50.150;8.568;2024-03-07T07:21:24;25.87;;;16.70;;
14078;SDS011;7115;50.150;8.568;2024-03-07T07:23:51;29.53;;;16.67;;
14078;SDS011;7115;50.150;8.568;2024-03-07T07:26:19;23.10;;;15.30;;
14078;SDS011;7115;50.150;8.568;2024-03-07T07:28:46;23.13;;;15.53;;
14078;SDS011;7115;50.150;8.568;2024-03-07T07:31:14;29.40;;;18.43;;
14078;SDS011;7115;50.150;8.568;2024-03-07T07:33:41;27.73;;;15.40;;
14078;SDS011;7115;50.150;8.568;2024-03-07T07:36:09;22.50;;;14.33;;
14078;SDS011;7115;50.150;8.568;2024-03-07T07:38:36;21.40;;;14.13;;
14078;SDS011;7115;50.150;8.568;2024-03-07T07:41:04;18.47;;;13.37;;
14078;SDS011;7115;50.150;8.568;2024-03-07T07:43:33;19.53;;;13.97;;
14078;SDS011;7115;50.150;8.568;2024-03-07T07:46:08;21.20;;;14.80;;
14078;SDS011;7115;50.150;8.568;2024-03-07T07:48:37;21.50;;;14.93;;
14078;SDS011;7115;50.150;8.568;2024-03-07T07:51:05;19.90;;;14.40;;
14078;SDS011;7115;50.150;8.568;2024-03-07T07:53:32;20.37;;;13.87;;
14078;SDS011;7115;50.150;8.568;2024-03-07T07:56:00;19.90;;;13.23;;
14078;SDS011;7115;50.150;8.568;2024-03-07T07:58:28;19.07;;;13.23;;
14078;SDS011;7115;50.150;8.568;2024-03-07T08:00:55;21.93;;;14.80;;
14078;SDS011;7115;50.150;8.568;2024-03-07T08:03:22;22.13;;;15.40;;
14078;SDS011;7115;50.150;8.568;2024-03-07T08:05:50;19.63;;;13.97;;
14078;SDS011;7115;50.150;8.568;2024-03-07T08:08:17;17.23;;;13.23;;
14078;SDS011;7115;50.150;8.568;2024-03-07T08:10:45;16.73;;;12.80;;
14078;SDS011;7115;50.150;8.568;2024-03-07T08:13:14;27.60;;;16.47;;
14078;SDS011;7115;50.150;8.568;2024-03-07T08:15:41;18.73;;;13.53;;
14078;SDS011;7115;50.150;8.568;2024-03-07T08:18:09;18.47;;;13.27;;
14078;SDS011;7115;50.150;8.568;2024-03-07T08:20:38;20.07;;;14.50;;
14078;SDS011;7115;50.150;8.568;2024-03-07T08:23:08;18.77;;;13.87;;
14078;SDS011;7115;50.150;8.568;2024-03-07T08:25:36;18.30;;;14.23;;
14078;SDS011;7115;50.150;8.568;2024-03-07T08:28:05;17.07;;;12.63;;
14078;SDS011;7115;50.150;8.568;2024-03-07T08:30:33;15.03;;;12.10;;
14078;SDS011;7115;50.150;8.568;2024-03-07T08:33:01;18.03;;;13.47;;
14078;SDS011;7115;50.150;8.568;2024-03-07T08:35:32;17.00;;;12.93;;
14078;SDS011;7115;50.150;8.568;2024-03-07T08:37:59;17.60;;;12.70;;
14078;SDS011;7115;50.150;8.568;2024-03-07T08:40:28;22.50;;;16.67;;
14078;SDS011;7115;50.150;8.568;2024-03-07T08:42:58;21.80;;;15.53;;
14078;SDS011;7115;50.150;8.568;2024-03-07T08:45:26;17.07;;;12.50;;
14078;SDS011;7115;50.150;8.568;2024-03-07T08:47:55;14.73;;;10.93;;
14078;SDS011;7115;50.150;8.568;2024-03-07T08:50:25;16.00;;;11.77;;
14078;SDS011;7115;50.150;8.568;2024-03-07T08:52:53;19.20;;;11.27;;
14078;SDS011;7115;50.150;8.568;2024-03-07T08:55:21;17.80;;;11.90;;
14078;SDS011;7115;50.150;8.568;2024-03-07T08:57:51;18.37;;;12.47;;
14078;SDS011;7115;50.150;8.568;2024-03-07T09:00:18;16.07;;;11.50;;
14078;SDS011;7115;50.150;8.568;2024-03-07T09:02:50;16.10;;;12.10;;
14078;SDS011;7115;50.150;8.568;2024-03-07T09:05:19;19.43;;;13.17;;
14078;SDS011;7115;50.150;8.568;2024-03-07T09:07:47;18.50;;;12.70;;
14078;SDS011;7115;50.150;8.568;2024-03-07T09:10:15;17.57;;;11.60;;
14078;SDS011;7115;50.150;8.568;2024-03-07T09:12:42;21.00;;;12.63;;
14078;SDS011;7115;50.150;8.568;2024-03-07T09:15:11;19.30;;;12.43;;
14078;SDS011;7115;50.150;8.568;2024-03-07T09:17:39;18.90;;;13.10;;
14078;SDS011;7115;50.150;8.568;2024-03-07T09:20:07;18.13;;;12.53;;
14078;SDS011;7115;50.150;8.568;2024-03-07T09:22:41;18.33;;;13.17;;
14078;SDS011;7115;50.150;8.568;2024-03-07T09:25:08;21.80;;;11.90;;
14078;SDS011;7115;50.150;8.568;2024-03-07T09:27:36;19.90;;;12.83;;
14078;SDS011;7115;50.150;8.568;2024-03-07T09:30:04;22.53;;;14.10;;
14078;SDS011;7115;50.150;8.568;2024-03-07T09:32:39;20.27;;;13.60;;
14078;SDS011;7115;50.150;8.568;2024-03-07T09:35:07;22.17;;;13.07;;
14078;SDS011;7115;50.150;8.568;2024-03-07T09:37:39;20.83;;;13.43;;
14078;SDS011;7115;50.150;8.568;2024-03-07T09:40:07;22.00;;;13.80;;
14078;SDS011;7115;50.150;8.568;2024-03-07T09:42:41;20.30;;;13.17;;
14078;SDS011;7115;50.150;8.568;2024-03-07T09:45:13;20.77;;;12.23;;
14078;SDS011;7115;50.150;8.568;2024-03-07T09:47:44;22.00;;;12.43;;
14078;SDS011;7115;50.150;8.568;2024-03-07T09:50:13;20.90;;;12.53;;
14078;SDS011;7115;50.150;8.568;2024-03-07T09:52:42;20.30;;;12.73;;
14078;SDS011;7115;50.150;8.568;2024-03-07T09:55:12;25.97;;;16.73;;
14078;SDS011;7115;50.150;8.568;2024-03-07T09:57:39;20.27;;;13.20;;
14078;SDS011;7115;50.150;8.568;2024-03-07T10:00:08;22.13;;;12.67;;
14078;SDS011;7115;50.150;8.568;2024-03-07T10:02:46;21.90;;;13.47;;
14078;SDS011;7115;50.150;8.568;2024-03-07T10:05:14;20.67;;;13.10;;
14078;SDS011;7115;50.150;8.568;2024-03-07T10:07:43;21.33;;;13.47;;
14078;SDS011;7115;50.150;8.568;2024-03-07T10:10:10;23.10;;;12.70;;
14078;SDS011;7115;50.150;8.568;2024-03-07T10:12:38;20.73;;;13.07;;
14078;SDS011;7115;50.150;8.568;2024-03-07T10:15:06;20.60;;;12.70;;
14078;SDS011;7115;50.150;8.568;2024-03-07T10:17:36;20.50;;;12.97;;
14078;SDS011;7115;50.150;8.568;2024-03-07T10:20:06;24.90;;;14.17;;
14078;SDS011;7115;50.150;8.568;2024-03-07T10:22:36;20.13;;;13.40;;
14078;SDS011;7115;50.150;8.568;2024-03-07T10:25:03;21.10;;;11.90;;
14078;SDS011;7115;50.150;8.568;2024-03-07T10:27:31;20.03;;;11.90;;
14078;SDS011;7115;50.150;8.568;2024-03-07T10:29:58;19.90;;;12.17;;
14078;SDS011;7115;50.150;8.568;2024-03-07T10:32:26;20.00;;;12.77;;
14078;SDS011;7115;50.150;8.568;2024-03-07T10:34:53;25.30;;;16.40;;
14078;SDS011;7115;50.150;8.568;2024-03-07T10:37:22;23.47;;;13.87;;
14078;SDS011;7115;50.150;8.568;2024-03-07T10:39:52;21.90;;;13.53;;
14078;SDS011;7115;50.150;8.568;2024-03-07T10:42:19;22.97;;;13.13;;
14078;SDS011;7115;50.150;8.568;2024-03-07T10:44:48;21.27;;;13.77;;
14078;SDS011;7115;50.150;8.568;2024-03-07T10:47:16;21.40;;;13.17;;
14078;SDS011;7115;50.150;8.568;2024-03-07T10:49:48;22.40;;;14.00;;
14078;SDS011;7115;50.150;8.568;2024-03-07T10:52:32;19.37;;;12.43;;
14078;SDS011;7115;50.150;8.568;2024-03-07T10:55:08;23.30;;;12.80;;
14078;SDS011;7115;50.150;8.568;2024-03-07T10:57:47;21.43;;;11.70;;
14078;SDS011;7115;50.150;8.568;2024-03-07T11:00:20;21.10;;;11.73;;
14078;SDS011;7115;50.150;8.568;2024-03-07T11:03:18;17.07;;;11.43;;
14078;SDS011;7115;50.150;8.568;2024-03-07T11:05:47;16.80;;;11.10;;
14078;SDS011;7115;50.150;8.568;2024-03-07T11:08:16;21.87;;;11.80;;
14078;SDS011;7115;50.150;8.568;2024-03-07T11:10:44;20.77;;;12.83;;
14078;SDS011;7115;50.150;8.568;2024-03-07T11:13:13;23.20;;;13.77;;
14078;SDS011;7115;50.150;8.568;2024-03-07T11:15:43;19.63;;;11.70;;
14078;SDS011;7115;50.150;8.568;2024-03-07T11:18:13;19.50;;;12.43;;
14078;SDS011;7115;50.150;8.568;2024-03-07T11:20:40;22.17;;;12.60;;
14078;SDS011;7115;50.150;8.568;2024-03-07T11:23:26;18.30;;;11.80;;
14078;SDS011;7115;50.150;8.568;2024-03-07T11:26:05;20.13;;;11.73;;
14078;SDS011;7115;50.150;8.568;2024-03-07T11:28:36;18.37;;;11.10;;
14078;SDS011;7115;50.150;8.568;2024-03-07T11:31:08;18.40;;;12.40;;
14078;SDS011;7115;50.150;8.568;2024-03-07T11:33:41;18.90;;;12.00;;
14078;SDS011;7115;50.150;8.568;2024-03-07T11:36:10;18.93;;;12.50;;
14078;SDS011;7115;50.150;8.568;2024-03-07T11:38:40;18.70;;;13.17;;
14078;SDS011;7115;50.150;8.568;2024-03-07T11:41:11;18.00;;;12.70;;
14078;SDS011;7115;50.150;8.568;2024-03-07T11:43:40;21.70;;;12.60;;
14078;SDS011;7115;50.150;8.568;2024-03-07T11:46:10;19.93;;;13.53;;
14078;SDS011;7115;50.150;8.568;2024-03-07T11:48:43;20.03;;;12.67;;
14078;SDS011;7115;50.150;8.568;2024-03-07T11:51:14;17.40;;;12.70;;
14078;SDS011;7115;50.150;8.568;2024-03-07T11:53:45;19.57;;;12.83;;
14078;SDS011;7115;50.150;8.568;2024-03-07T11:56:14;20.87;;;12.93;;
14078;SDS011;7115;50.150;8.568;2024-03-07T11:58:43;18.90;;;12.50;;
14078;SDS011;7115;50.150;8.568;2024-03-07T12:01:11;21.83;;;13.03;;
14078;SDS011;7115;50.150;8.568;2024-03-07T12:03:40;20.10;;;13.00;;
14078;SDS011;7115;50.150;8.568;2024-03-07T12:06:09;17.07;;;11.90;;
14078;SDS011;7115;50.150;8.568;2024-03-07T12:08:39;18.53;;;12.43;;
14078;SDS011;7115;50.150;8.568;2024-03-07T12:11:09;19.67;;;11.57;;
14078;SDS011;7115;50.150;8.568;2024-03-07T12:13:42;23.77;;;12.97;;
14078;SDS011;7115;50.150;8.568;2024-03-07T12:16:09;15.67;;;10.90;;
14078;SDS011;7115;50.150;8.568;2024-03-07T12:18:36;17.93;;;11.97;;
14078;SDS011;7115;50.150;8.568;2024-03-07T12:21:04;19.27;;;12.03;;
14078;SDS011;7115;50.150;8.568;2024-03-07T12:23:37;17.97;;;12.17;;
14078;SDS011;7115;50.150;8.568;2024-03-07T12:26:04;19.43;;;12.10;;
14078;SDS011;7115;50.150;8.568;2024-03-07T12:28:33;21.03;;;12.40;;
14078;SDS011;7115;50.150;8.568;2024-03-07T12:31:02;18.27;;;12.37;;
14078;SDS011;7115;50.150;8.568;2024-03-07T12:33:31;17.23;;;11.30;;
14078;SDS011;7115;50.150;8.568;2024-03-07T12:36:06;18.70;;;12.03;;
14078;SDS011;7115;50.150;8.568;2024-03-07T12:38:34;17.77;;;11.53;;
14078;SDS011;7115;50.150;8.568;2024-03-07T12:41:03;17.83;;;10.53;;
14078;SDS011;7115;50.150;8.568;2024-03-07T12:43:41;16.70;;;11.00;;
14078;SDS011;7115;50.150;8.568;2024-03-07T12:46:10;16.87;;;11.77;;
14078;SDS011;7115;50.150;8.568;2024-03-07T12:48:39;17.43;;;11.13;;
14078;SDS011;7115;50.150;8.568;2024-03-07T12:51:06;17.70;;;11.10;;
14078;SDS011;7115;50.150;8.568;2024-03-07T12:53:33;17.63;;;10.40;;
14078;SDS011;7115;50.150;8.568;2024-03-07T12:56:01;16.47;;;9.77;;
14078;SDS011;7115;50.150;8.568;2024-03-07T12:58:29;16.70;;;10.93;;
14078;SDS011;7115;50.150;8.568;2024-03-07T13:00:58;16.47;;;10.70;;
14078;SDS011;7115;50.150;8.568;2024-03-07T13:03:26;16.77;;;10.57;;
14078;SDS011;7115;50.150;8.568;2024-03-07T13:05:57;14.50;;;9.83;;
14078;SDS011;7115;50.150;8.568;2024-03-07T13:08:28;16.10;;;9.97;;
14078;SDS011;7115;50.150;8.568;2024-03-07T13:10:56;16.97;;;10.33;;
14078;SDS011;7115;50.150;8.568;2024-03-07T13:13:25;16.50;;;9.77;;
14078;SDS011;7115;50.150;8.568;2024-03-07T13:15:52;16.07;;;10.07;;
14078;SDS011;7115;50.150;8.568;2024-03-07T13:18:23;14.00;;;8.90;;
14078;SDS011;7115;50.150;8.568;2024-03-07T13:20:51;14.30;;;9.30;;
14078;SDS011;7115;50.150;8.568;2024-03-07T13:23:18;13.27;;;8.70;;
14078;SDS011;7115;50.150;8.568;2024-03-07T13:25:45;15.53;;;8.30;;
14078;SDS011;7115;50.150;8.568;2024-03-07T13:28:15;12.47;;;7.97;;
14078;SDS011;7115;50.150;8.568;2024-03-07T13:30:51;13.97;;;8.10;;
14078;SDS011;7115;50.150;8.568;2024-03-07T13:33:23;14.87;;;9.07;;
14078;SDS011;7115;50.150;8.568;2024-03-07T13:35:54;13.90;;;8.90;;
14078;SDS011;7115;50.150;8.568;2024-03-07T13:38:21;12.83;;;8.97;;
14078;SDS011;7115;50.150;8.568;2024-03-07T13:40:48;11.03;;;8.10;;
14078;SDS011;7115;50.150;8.568;2024-03-07T13:43:16;14.33;;;9.23;;
14078;SDS011;7115;50.150;8.568;2024-03-07T13:45:44;11.87;;;8.27;;
14078;SDS011;7115;50.150;8.568;2024-03-07T13:48:14;13.57;;;8.77;;
14078;SDS011;7115;50.150;8.568;2024-03-07T13:50:45;13.77;;;8.60;;
14078;SDS011;7115;50.150;8.568;2024-03-07T13:53:26;15.47;;;8.17;;
14078;SDS011;7115;50.150;8.568;2024-03-07T13:55:56;13.93;;;8.70;;
14078;SDS011;7115;50.150;8.568;2024-03-07T14:01:52;12.73;;;7.90;;
14078;SDS011;7115;50.150;8.568;2024-03-07T14:07:44;12.60;;;8.90;;
14078;SDS011;7115;50.150;8.568;2024-03-07T14:13:44;14.23;;;10.03;;
14078;SDS011;7115;50.150;8.568;2024-03-07T14:22:59;15.50;;;10.23;;
14078;SDS011;7115;50.150;8.568;2024-03-07T14:25:43;13.53;;;9.13;;
14078;SDS011;7115;50.150;8.568;2024-03-07T14:31:17;16.63;;;9.63;;
14078;SDS011;7115;50.150;8.568;2024-03-07T14:33:48;14.07;;;9.20;;
14078;SDS011;7115;50.150;8.568;2024-03-07T14:36:31;12.83;;;8.70;;
14078;SDS011;7115;50.150;8.568;2024-03-07T14:39:03;15.07;;;9.33;;
14078;SDS011;7115;50.150;8.568;2024-03-07T14:41:40;14.73;;;8.97;;
14078;SDS011;7115;50.150;8.568;2024-03-07T14:44:14;13.27;;;8.40;;
14078;SDS011;7115;50.150;8.568;2024-03-07T14:46:42;16.47;;;11.70;;
14078;SDS011;7115;50.150;8.568;2024-03-07T14:49:10;15.43;;;9.47;;
14078;SDS011;7115;50.150;8.568;2024-03-07T14:51:40;13.67;;;8.90;;
14078;SDS011;7115;50.150;8.568;2024-03-07T14:54:21;14.33;;;9.50;;
14078;SDS011;7115;50.150;8.568;2024-03-07T14:56:48;14.93;;;10.33;;
14078;SDS011;7115;50.150;8.568;2024-03-07T14:59:16;14.40;;;9.63;;
14078;SDS011;7115;50.150;8.568;2024-03-07T15:01:44;11.43;;;8.13;;
14078;SDS011;7115;50.150;8.568;2024-03-07T15:04:11;13.10;;;7.90;;
14078;SDS011;7115;50.150;8.568;2024-03-07T15:06:39;14.20;;;8.67;;